KIWD Airport (Gogebic-Iron County) Information

FAA: IWD - ICAO: KIWD

KIWD Airport Location

State Michigan
County Gogebic
City Ironwood
KIWD Airport is 7 miles northeast of Ironwood, MI.
Latitude 46-31-38.9000N
Longitude 090-07-53.0000W
Elevation 1,230ft

KIWD Airport METARs

METAR KIWD 200356Z AUTO 26003KT 10SM CLR 09/05 A2999 RMK AO2 SLP157 T00890050 PNO $
Altimeter 29.99"
Temperature 8.9°C (48.0°F)
Wind 260° at 3KT
Clouds Skies are clear.
Visibility 10.0mi
Time observed: 2021-10-20T03:56:00Z

KIWD Airport Details

Status Operational
Activation April 1940
Ownership Public
Usage Public
Chart GREEN BAY
ATC on-site No
Beacon schedule sunset-sunrise
Beacon color clear green

KIWD Airport Contacts

Owner GOGEBIC COUNTY
Owner address GOGEBIC CO COURT HOUSE, BESSEMER, MI 49911
Owner phone 906-932-3121
Manager KATRINA JOHNSTON
Manager address 4160 BRACE DR, BRIGHTON, MI 48114-9689
Manager phone 517-376-2552

KIWD Airport (Gogebic-Iron County) Radio Frequencies

KIWD (Airport) Radio Frequencies

UNICOM 122.8
Common traffic advisory frequency (CTAF) 122.8